Time;durP1;ratioP1;P1;durP2;ratioP2;P2;SDS_P1;SDS_P2;PMS_P1;PMS_P2;Temp;Humidity;BMP_temperature;BMP_pressure;BME280_temperature;BME280_humidity;BME280_pressure;Samples;Min_cycle;Max_cycle;Signal;HPM_P1;HPM_P2
2021/10/13 00:02:46;;;;;;;;;;;9.50;99.90;;;;;;4934005;29;19931;-69
2021/10/13 00:05:36;;;;;;;;;;;9.50;99.90;;;;;;4934685;28;19977;-69
2021/10/13 00:08:24;;;;;;;;;;;9.50;99.90;;;;;;4936300;28;20462;-69
2021/10/13 00:11:15;;;;;;;;;;;9.50;99.90;;;;;;4934106;29;19938;-69
2021/10/13 00:14:05;;;;;;;;;;;9.50;99.90;;;;;;4946721;23;19933;-75
2021/10/13 00:16:55;;;;;;;;;;;9.50;99.90;;;;;;4916097;29;19934;-76
2021/10/13 00:19:44;;;;;;;;;;;9.50;99.90;;;;;;4938413;28;20048;-75
2021/10/13 00:22:34;;;;;;;;;;;9.50;99.90;;;;;;4934605;29;20073;-77
2021/10/13 00:25:23;;;;;;;;;;;9.50;99.90;;;;;;4934830;29;19982;-76
2021/10/13 00:28:12;;;;;;;;;;;9.50;99.90;;;;;;4923630;29;19933;-77
2021/10/13 00:31:01;;;;;;;;;;;9.40;99.90;;;;;;4924724;29;20395;-77
2021/10/13 00:33:53;;;;;;;;;;;9.40;99.90;;;;;;4926896;29;19927;-76
2021/10/13 00:36:42;;;;;;;;;;;9.40;99.90;;;;;;4933766;29;20382;-80
2021/10/13 00:39:33;;;;;;;;;;;9.40;99.90;;;;;;4935931;29;20239;-78
2021/10/13 00:42:22;;;;;;;;;;;9.30;99.90;;;;;;4918687;29;19930;-77
2021/10/13 00:45:11;;;;;;;;;;;9.30;99.90;;;;;;4916250;29;19926;-78
2021/10/13 00:48:00;;;;;;;;;;;9.30;99.90;;;;;;4923005;29;19931;-77
2021/10/13 00:50:50;;;;;;;;;;;9.40;99.90;;;;;;4921077;29;20295;-77
2021/10/13 00:53:39;;;;;;;;;;;9.30;99.90;;;;;;4932060;28;20394;-80
2021/10/13 00:56:46;;;;;;;;;;;9.30;99.90;;;;;;4935375;29;19926;-78
2021/10/13 00:59:34;;;;;;;;;;;9.30;99.90;;;;;;4930281;29;19931;-79
2021/10/13 01:02:26;;;;;;;;;;;9.30;99.90;;;;;;4927763;29;19926;-79
2021/10/13 01:05:23;;;;;;;;;;;9.30;99.90;;;;;;4925930;29;19927;-79
2021/10/13 01:08:31;;;;;;;;;;;9.30;99.90;;;;;;4937321;28;19927;-79
2021/10/13 01:11:30;;;;;;;;;;;9.30;99.90;;;;;;4950422;23;19978;-71
2021/10/13 01:14:27;;;;;;;;;;;9.40;99.90;;;;;;4932949;29;19938;-71
2021/10/13 01:17:20;;;;;;;;;;;9.30;99.90;;;;;;4922830;29;20274;-71
2021/10/13 01:20:13;;;;;;;;;;;9.30;99.90;;;;;;4933225;28;19927;-70
2021/10/13 01:23:21;;;;;;;;;;;9.20;99.90;;;;;;4917157;29;19927;-69
2021/10/13 01:26:15;;;;;;;;;;;9.10;99.90;;;;;;4915623;29;19987;-69
2021/10/13 01:29:09;;;;;;;;;;;9.10;99.90;;;;;;4927008;29;19937;-69
2021/10/13 01:32:00;;;;;;;;;;;9.10;99.90;;;;;;4928691;28;19930;-69
2021/10/13 01:34:49;;;;;;;;;;;9.00;99.90;;;;;;4913610;29;20135;-69
2021/10/13 01:37:40;;;;;;;;;;;9.00;99.90;;;;;;4933275;28;20386;-70
2021/10/13 01:40:30;;;;;;;;;;;8.90;99.90;;;;;;4933594;28;20417;-69
2021/10/13 01:43:19;;;;;;;;;;;8.90;99.90;;;;;;4929632;29;19935;-70
2021/10/13 01:46:10;;;;;;;;;;;8.80;99.90;;;;;;4925703;29;19937;-71
2021/10/13 01:52:15;;;;;;;;;;;8.80;99.90;;;;;;4934885;28;19927;-71
2021/10/13 01:55:04;;;;;;;;;;;8.90;99.90;;;;;;4925645;28;19926;-69
2021/10/13 01:57:55;;;;;;;;;;;8.80;99.90;;;;;;4938361;28;20287;-70
2021/10/13 02:00:46;;;;;;;;;;;8.80;99.90;;;;;;4916565;29;20001;-69
2021/10/13 02:03:38;;;;;;;;;;;8.80;99.90;;;;;;4936222;29;19977;-70
2021/10/13 02:06:28;;;;;;;;;;;8.80;99.90;;;;;;4934239;29;19973;-70
2021/10/13 02:09:17;;;;;;;;;;;8.80;99.90;;;;;;4931339;28;19943;-69
2021/10/13 02:12:07;;;;;;;;;;;8.80;99.90;;;;;;4933583;28;20021;-70
2021/10/13 02:14:56;;;;;;;;;;;8.80;99.90;;;;;;4921237;29;19931;-71
2021/10/13 02:17:46;;;;;;;;;;;8.80;99.90;;;;;;4912161;29;19927;-69
2021/10/13 02:20:36;;;;;;;;;;;8.80;99.90;;;;;;4916494;29;19931;-69
2021/10/13 02:23:26;;;;;;;;;;;8.80;99.90;;;;;;4915748;29;19951;-69
2021/10/13 02:26:22;;;;;;;;;;;8.90;99.90;;;;;;4901586;29;19954;-70
2021/10/13 02:29:13;;;;;;;;;;;8.90;99.90;;;;;;4893310;29;19939;-69
2021/10/13 02:32:02;;;;;;;;;;;8.80;99.90;;;;;;4914882;29;19987;-69
2021/10/13 02:34:52;;;;;;;;;;;8.80;99.90;;;;;;4914513;29;20038;-69
2021/10/13 02:37:42;;;;;;;;;;;8.90;99.90;;;;;;4914585;29;19938;-70
2021/10/13 02:40:31;;;;;;;;;;;8.90;99.90;;;;;;4916029;29;20053;-70
2021/10/13 02:43:20;;;;;;;;;;;8.80;99.90;;;;;;4898844;29;19927;-69
2021/10/13 02:46:13;;;;;;;;;;;8.80;99.90;;;;;;4910764;29;19941;-70
2021/10/13 02:52:21;;;;;;;;;;;8.90;99.90;;;;;;4903675;28;20222;-70
2021/10/13 02:55:13;;;;;;;;;;;8.90;99.90;;;;;;4900643;29;19970;-70
2021/10/13 02:58:04;;;;;;;;;;;8.90;99.90;;;;;;4912100;29;19931;-69
2021/10/13 03:00:54;;;;;;;;;;;8.90;99.90;;;;;;4909565;29;20324;-70
2021/10/13 03:03:47;;;;;;;;;;;8.90;99.90;;;;;;4915189;29;19927;-69
2021/10/13 03:06:37;;;;;;;;;;;8.80;99.90;;;;;;4920828;28;19991;-69
2021/10/13 03:09:27;;;;;;;;;;;8.80;99.90;;;;;;4896768;29;19950;-71
2021/10/13 03:12:18;;;;;;;;;;;8.80;99.90;;;;;;4923363;29;19926;-69
2021/10/13 03:15:09;;;;;;;;;;;8.80;99.90;;;;;;4933016;29;19934;-69
2021/10/13 03:17:59;;;;;;;;;;;8.90;99.90;;;;;;4920157;29;20394;-69
2021/10/13 03:20:54;;;;;;;;;;;8.80;99.90;;;;;;4920184;29;19933;-70
2021/10/13 03:23:43;;;;;;;;;;;8.90;99.90;;;;;;4933592;29;19927;-69
2021/10/13 03:26:33;;;;;;;;;;;8.90;99.90;;;;;;4933843;29;20303;-69
2021/10/13 03:29:23;;;;;;;;;;;8.90;99.90;;;;;;4920523;29;20049;-70
2021/10/13 03:32:17;;;;;;;;;;;8.90;99.90;;;;;;4941068;28;19942;-70
2021/10/13 03:35:06;;;;;;;;;;;8.90;99.90;;;;;;4923236;29;20370;-69
2021/10/13 03:38:20;;;;;;;;;;;8.90;99.90;;;;;;4915379;29;19926;-70
2021/10/13 03:41:09;;;;;;;;;;;8.90;99.90;;;;;;4919618;29;20002;-69
2021/10/13 03:43:58;;;;;;;;;;;8.80;99.90;;;;;;4935083;28;19927;-69
2021/10/13 03:46:48;;;;;;;;;;;8.80;99.90;;;;;;4929992;28;20264;-70
2021/10/13 03:49:38;;;;;;;;;;;8.80;99.90;;;;;;4929314;29;19958;-70
2021/10/13 03:52:27;;;;;;;;;;;8.80;99.90;;;;;;4936019;29;19969;-69
2021/10/13 03:55:16;;;;;;;;;;;8.80;99.90;;;;;;4932922;29;19935;-69
2021/10/13 03:58:05;;;;;;;;;;;8.80;99.90;;;;;;4930708;29;20028;-70
2021/10/13 04:00:55;;;;;;;;;;;8.80;99.90;;;;;;4914127;28;19953;-69
2021/10/13 04:03:46;;;;;;;;;;;8.90;99.90;;;;;;4914231;28;20291;-69
2021/10/13 04:06:35;;;;;;;;;;;8.90;99.90;;;;;;4931170;28;20255;-69
2021/10/13 04:09:23;;;;;;;;;;;8.90;99.90;;;;;;4933680;28;19927;-69
2021/10/13 04:12:14;;;;;;;;;;;8.90;99.90;;;;;;4931922;28;19934;-70
2021/10/13 04:15:03;;;;;;;;;;;8.90;99.90;;;;;;4915406;29;20446;-69
2021/10/13 04:17:52;;;;;;;;;;;8.90;99.90;;;;;;4916206;29;20058;-69
2021/10/13 04:20:42;;;;;;;;;;;8.90;99.90;;;;;;4920248;29;19930;-69
2021/10/13 04:23:56;;;;;;;;;;;8.90;99.90;;;;;;4936955;29;20355;-70
2021/10/13 04:26:45;;;;;;;;;;;9.00;99.90;;;;;;4919117;29;19934;-69
2021/10/13 04:29:34;;;;;;;;;;;8.90;99.90;;;;;;4934816;29;20371;-70
2021/10/13 04:32:23;;;;;;;;;;;8.90;99.90;;;;;;4934139;28;19938;-70
2021/10/13 04:35:12;;;;;;;;;;;8.90;99.90;;;;;;4937069;28;20026;-69
2021/10/13 04:38:06;;;;;;;;;;;8.90;99.90;;;;;;4929582;29;19931;-69
2021/10/13 04:40:56;;;;;;;;;;;8.90;99.90;;;;;;4932616;29;19935;-70
2021/10/13 04:43:45;;;;;;;;;;;9.00;99.90;;;;;;4933956;29;19935;-69
2021/10/13 04:46:34;;;;;;;;;;;8.90;99.90;;;;;;4913095;29;20012;-70
2021/10/13 04:49:23;;;;;;;;;;;8.90;99.90;;;;;;4934995;28;20568;-71
2021/10/13 04:52:12;;;;;;;;;;;8.90;99.90;;;;;;4930887;28;19931;-67
2021/10/13 04:55:02;;;;;;;;;;;9.00;99.90;;;;;;4918469;29;19927;-68
2021/10/13 04:57:51;;;;;;;;;;;9.00;99.90;;;;;;4919517;29;20017;-68
2021/10/13 05:00:40;;;;;;;;;;;9.00;99.90;;;;;;4907133;29;20263;-68
2021/10/13 05:03:29;;;;;;;;;;;8.90;99.90;;;;;;4930420;28;19934;-69
2021/10/13 05:06:18;;;;;;;;;;;8.90;99.90;;;;;;4933012;29;19942;-69
2021/10/13 05:09:07;;;;;;;;;;;8.90;99.90;;;;;;4931463;29;19930;-69
2021/10/13 05:11:57;;;;;;;;;;;8.80;99.90;;;;;;4932027;29;19927;-69
2021/10/13 05:14:46;;;;;;;;;;;8.80;99.90;;;;;;4917537;29;19934;-69
2021/10/13 05:17:35;;;;;;;;;;;8.80;99.90;;;;;;4931208;29;19979;-69
2021/10/13 05:20:23;;;;;;;;;;;8.80;99.90;;;;;;4933739;28;19926;-69
2021/10/13 05:23:12;;;;;;;;;;;8.80;99.90;;;;;;4930453;29;19934;-69
2021/10/13 05:26:07;;;;;;;;;;;8.80;99.90;;;;;;4918944;29;20440;-69
2021/10/13 05:28:57;;;;;;;;;;;8.80;99.90;;;;;;4935753;28;20006;-69
2021/10/13 05:31:46;;;;;;;;;;;8.90;99.90;;;;;;4925020;29;19935;-69
2021/10/13 05:34:35;;;;;;;;;;;8.80;99.90;;;;;;4932890;29;20044;-69
2021/10/13 05:37:24;;;;;;;;;;;8.80;99.90;;;;;;4931442;29;20024;-69
2021/10/13 05:40:13;;;;;;;;;;;8.80;99.90;;;;;;4933049;29;19927;-69
2021/10/13 05:43:02;;;;;;;;;;;8.80;99.90;;;;;;4936094;29;20371;-70
2021/10/13 05:45:53;;;;;;;;;;;8.80;99.90;;;;;;4924939;29;19946;-69
2021/10/13 05:48:42;;;;;;;;;;;8.70;99.90;;;;;;4919300;29;19927;-69
2021/10/13 05:51:30;;;;;;;;;;;8.70;99.90;;;;;;4927201;29;19931;-69
2021/10/13 05:54:20;;;;;;;;;;;8.70;99.90;;;;;;4933424;29;19979;-69
2021/10/13 05:57:08;;;;;;;;;;;8.70;99.90;;;;;;4930518;28;19926;-69
2021/10/13 05:59:59;;;;;;;;;;;8.70;99.90;;;;;;4933254;29;19931;-68
2021/10/13 06:02:49;;;;;;;;;;;8.70;99.90;;;;;;4929637;29;19934;-69
2021/10/13 06:05:38;;;;;;;;;;;8.60;99.90;;;;;;4932916;29;19927;-69
2021/10/13 06:08:27;;;;;;;;;;;8.60;99.90;;;;;;4915611;29;19927;-69
2021/10/13 06:11:16;;;;;;;;;;;8.60;99.90;;;;;;4934973;28;20315;-69
2021/10/13 06:14:30;;;;;;;;;;;8.60;99.90;;;;;;4910653;29;19927;-69
2021/10/13 06:17:22;;;;;;;;;;;8.60;99.90;;;;;;4904106;29;20414;-68
2021/10/13 06:20:12;;;;;;;;;;;8.60;99.90;;;;;;4916072;29;19927;-68
2021/10/13 06:23:01;;;;;;;;;;;8.60;99.90;;;;;;4911847;28;20369;-69
2021/10/13 06:25:50;;;;;;;;;;;8.60;99.90;;;;;;4893594;29;19938;-69
2021/10/13 06:28:39;;;;;;;;;;;8.60;99.90;;;;;;4890829;29;20324;-70
2021/10/13 06:31:52;;;;;;;;;;;8.70;99.90;;;;;;4910794;29;19979;-69
2021/10/13 06:34:42;;;;;;;;;;;8.70;99.90;;;;;;4910766;29;19950;-69
2021/10/13 06:37:31;;;;;;;;;;;8.70;99.90;;;;;;4899576;29;20009;-69
2021/10/13 06:40:20;;;;;;;;;;;8.70;99.90;;;;;;4908990;29;19931;-69
2021/10/13 06:43:11;;;;;;;;;;;8.70;99.90;;;;;;4915265;29;19927;-69
2021/10/13 06:46:01;;;;;;;;;;;8.70;99.90;;;;;;4910738;28;20392;-69
2021/10/13 06:52:05;;;;;;;;;;;8.80;99.90;;;;;;4909956;29;20087;-69
2021/10/13 06:54:55;;;;;;;;;;;8.90;99.90;;;;;;4914147;29;20384;-70
2021/10/13 06:57:45;;;;;;;;;;;8.90;99.90;;;;;;4900163;29;20376;-69
2021/10/13 07:00:34;;;;;;;;;;;9.00;99.90;;;;;;4910552;29;20014;-69
2021/10/13 07:03:23;;;;;;;;;;;9.00;99.90;;;;;;4914394;29;19938;-69
2021/10/13 07:06:13;;;;;;;;;;;9.00;99.90;;;;;;4914668;29;20341;-69
2021/10/13 07:09:02;;;;;;;;;;;9.00;99.90;;;;;;4907955;29;19927;-69
2021/10/13 07:11:53;;;;;;;;;;;8.90;99.90;;;;;;4916959;28;20296;-69
2021/10/13 07:14:43;;;;;;;;;;;8.90;99.90;;;;;;4913290;29;19931;-69
2021/10/13 07:17:32;;;;;;;;;;;8.90;99.90;;;;;;4935419;28;19930;-69
2021/10/13 07:20:20;;;;;;;;;;;8.90;99.90;;;;;;4918634;29;20261;-69
2021/10/13 07:23:09;;;;;;;;;;;9.00;99.90;;;;;;4928732;29;19977;-69
2021/10/13 07:25:59;;;;;;;;;;;8.90;99.90;;;;;;4933200;28;20275;-70
2021/10/13 07:28:53;;;;;;;;;;;8.90;99.90;;;;;;4917408;29;19927;-70
2021/10/13 07:31:44;;;;;;;;;;;9.00;99.90;;;;;;4928394;28;20275;-69
2021/10/13 07:34:33;;;;;;;;;;;9.00;99.90;;;;;;4931830;29;19927;-69
2021/10/13 07:37:21;;;;;;;;;;;9.00;99.90;;;;;;4915734;29;19934;-69
2021/10/13 07:40:10;;;;;;;;;;;9.10;99.90;;;;;;4933142;28;19971;-69
2021/10/13 07:43:08;;;;;;;;;;;9.00;99.90;;;;;;4915103;29;20013;-70
2021/10/13 07:46:00;;;;;;;;;;;9.10;99.90;;;;;;4919996;29;20049;-69
2021/10/13 07:48:48;;;;;;;;;;;9.20;99.90;;;;;;4937814;29;19981;-70
2021/10/13 07:51:37;;;;;;;;;;;9.20;99.90;;;;;;4917941;29;19937;-69
2021/10/13 07:54:26;;;;;;;;;;;9.20;99.90;;;;;;4933663;28;19938;-69
2021/10/13 07:57:15;;;;;;;;;;;9.20;99.90;;;;;;4933271;29;20608;-69
2021/10/13 08:00:04;;;;;;;;;;;9.30;99.90;;;;;;4929560;28;19927;-69
2021/10/13 08:02:55;;;;;;;;;;;9.30;99.90;;;;;;4916428;29;19934;-69
2021/10/13 08:05:43;;;;;;;;;;;9.30;99.90;;;;;;4932127;28;19927;-69
2021/10/13 08:08:32;;;;;;;;;;;9.20;99.90;;;;;;4930625;28;19931;-69
2021/10/13 08:11:21;;;;;;;;;;;9.30;99.90;;;;;;4932854;28;20700;-69
2021/10/13 08:14:11;;;;;;;;;;;9.30;99.90;;;;;;4932012;28;20039;-70
2021/10/13 08:17:01;;;;;;;;;;;9.30;99.90;;;;;;4927360;29;20375;-69
2021/10/13 08:19:51;;;;;;;;;;;9.30;99.90;;;;;;4933183;28;19927;-69
2021/10/13 08:22:40;;;;;;;;;;;9.30;99.90;;;;;;4932576;28;20014;-69
2021/10/13 08:25:30;;;;;;;;;;;9.30;99.90;;;;;;4927699;29;19970;-69
2021/10/13 08:28:19;;;;;;;;;;;9.30;99.90;;;;;;4932497;28;19942;-69
2021/10/13 08:31:09;;;;;;;;;;;9.30;99.90;;;;;;4924176;28;19927;-69
2021/10/13 08:33:59;;;;;;;;;;;9.30;99.90;;;;;;4913910;29;19927;-69
2021/10/13 08:36:49;;;;;;;;;;;9.30;99.90;;;;;;4917449;29;19931;-69
2021/10/13 08:39:38;;;;;;;;;;;9.40;99.90;;;;;;4927903;29;19931;-69
2021/10/13 08:45:42;;;;;;;;;;;9.80;99.90;;;;;;4916676;28;19930;-69
2021/10/13 08:48:31;;;;;;;;;;;9.70;99.90;;;;;;4913565;29;19938;-69
2021/10/13 08:51:20;;;;;;;;;;;9.70;99.90;;;;;;4933115;28;20074;-69
2021/10/13 08:54:13;;;;;;;;;;;9.60;99.90;;;;;;4919386;29;19953;-69
2021/10/13 08:57:15;;;;;;;;;;;9.60;99.90;;;;;;4918637;29;20275;-68
2021/10/13 09:00:07;;;;;;;;;;;9.60;99.90;;;;;;4928945;29;19927;-69
2021/10/13 09:02:56;;;;;;;;;;;9.60;99.90;;;;;;4937052;28;19999;-69
2021/10/13 09:05:46;;;;;;;;;;;9.60;99.90;;;;;;4938936;28;20304;-70
2021/10/13 09:08:34;;;;;;;;;;;9.60;99.90;;;;;;4935050;29;19941;-69
2021/10/13 09:11:35;;;;;;;;;;;9.70;99.90;;;;;;4916419;29;19931;-69
2021/10/13 09:14:26;;;;;;;;;;;9.80;99.90;;;;;;4938253;29;20004;-69
2021/10/13 09:17:16;;;;;;;;;;;9.90;99.90;;;;;;4915489;29;20244;-70
2021/10/13 09:20:06;;;;;;;;;;;10.00;99.90;;;;;;4937802;28;19927;-69
2021/10/13 09:22:56;;;;;;;;;;;10.00;99.90;;;;;;4936177;29;20498;-69
2021/10/13 09:26:00;;;;;;;;;;;10.10;99.90;;;;;;4933629;29;19975;-69
2021/10/13 09:28:59;;;;;;;;;;;10.10;99.90;;;;;;4932441;29;20050;-69
2021/10/13 09:31:54;;;;;;;;;;;10.10;99.90;;;;;;4931775;29;19938;-69
2021/10/13 09:34:47;;;;;;;;;;;10.10;99.90;;;;;;4933735;29;19930;-69
2021/10/13 09:37:43;;;;;;;;;;;10.10;99.90;;;;;;4933219;29;19930;-69
2021/10/13 09:40:33;;;;;;;;;;;10.10;99.90;;;;;;4942113;29;19926;-69
2021/10/13 09:43:29;;;;;;;;;;;10.30;99.90;;;;;;4919770;29;19927;-70
2021/10/13 09:46:23;;;;;;;;;;;10.50;99.90;;;;;;4923835;29;19926;-69
2021/10/13 09:49:11;;;;;;;;;;;10.70;99.90;;;;;;4916881;29;19930;-70
2021/10/13 09:52:05;;;;;;;;;;;10.90;99.90;;;;;;4922555;29;19933;-69
2021/10/13 09:54:58;;;;;;;;;;;11.10;99.90;;;;;;4935806;29;19931;-70
2021/10/13 09:57:48;;;;;;;;;;;11.20;99.90;;;;;;4937374;28;20370;-70
2021/10/13 10:00:37;;;;;;;;;;;11.10;99.90;;;;;;4930032;28;19938;-69
2021/10/13 10:03:27;;;;;;;;;;;11.10;99.90;;;;;;4935544;29;20319;-69
2021/10/13 10:06:17;;;;;;;;;;;10.90;99.90;;;;;;4936227;28;20399;-69
2021/10/13 10:09:07;;;;;;;;;;;10.80;99.90;;;;;;4934571;29;19934;-69
2021/10/13 10:15:27;;;;;;;;;;;10.70;99.90;;;;;;4931786;29;19931;-69
2021/10/13 10:18:38;;;;;;;;;;;10.80;99.90;;;;;;4933574;29;20058;-69
2021/10/13 10:21:30;;;;;;;;;;;10.80;99.90;;;;;;4929269;29;19937;-70
2021/10/13 10:24:27;;;;;;;;;;;10.80;99.90;;;;;;4921719;29;20048;-70
2021/10/13 10:27:20;;;;;;;;;;;10.80;99.90;;;;;;4918987;29;20006;-69
2021/10/13 10:30:17;;;;;;;;;;;10.80;99.90;;;;;;4930266;28;19953;-69
2021/10/13 10:33:16;;;;;;;;;;;10.80;99.90;;;;;;4919361;29;20020;-70
2021/10/13 10:36:09;;;;;;;;;;;10.80;99.90;;;;;;4932593;29;19966;-69
2021/10/13 10:38:59;;;;;;;;;;;10.90;99.90;;;;;;4921331;29;19927;-70
2021/10/13 10:41:49;;;;;;;;;;;11.10;99.90;;;;;;4935642;29;19926;-69
2021/10/13 10:44:46;;;;;;;;;;;11.40;99.90;;;;;;4935382;29;19927;-69
2021/10/13 10:47:48;;;;;;;;;;;11.60;99.90;;;;;;4917245;29;19935;-69
2021/10/13 10:50:38;;;;;;;;;;;11.80;99.90;;;;;;4932049;29;19934;-71
2021/10/13 10:53:29;;;;;;;;;;;11.80;99.90;;;;;;4934448;29;20006;-70
2021/10/13 10:56:36;;;;;;;;;;;11.70;99.90;;;;;;4934219;29;19941;-69
2021/10/13 10:59:38;;;;;;;;;;;11.70;99.90;;;;;;4933515;29;20359;-69
2021/10/13 11:02:27;;;;;;;;;;;11.60;99.90;;;;;;4915433;29;20026;-69
2021/10/13 11:05:16;;;;;;;;;;;11.40;99.90;;;;;;4921259;28;19933;-69
2021/10/13 11:08:09;;;;;;;;;;;11.30;99.90;;;;;;4936205;28;20021;-69
2021/10/13 11:10:58;;;;;;;;;;;11.30;99.90;;;;;;4935289;28;20017;-69
2021/10/13 11:13:55;;;;;;;;;;;11.30;99.90;;;;;;4933601;29;19933;-69
2021/10/13 11:16:49;;;;;;;;;;;11.20;99.90;;;;;;4931755;28;20260;-69
2021/10/13 11:19:39;;;;;;;;;;;11.20;99.90;;;;;;4935799;28;19938;-70
2021/10/13 11:22:29;;;;;;;;;;;11.10;99.90;;;;;;4931393;29;20082;-69
2021/10/13 11:25:18;;;;;;;;;;;11.10;99.90;;;;;;4934580;28;20005;-69
2021/10/13 11:28:08;;;;;;;;;;;11.00;99.90;;;;;;4935298;29;19938;-69
2021/10/13 11:31:05;;;;;;;;;;;11.00;99.90;;;;;;4927402;29;19926;-69
2021/10/13 11:34:06;;;;;;;;;;;11.00;99.90;;;;;;4931965;29;20352;-70
2021/10/13 11:36:56;;;;;;;;;;;11.00;99.90;;;;;;4934822;29;19998;-70
2021/10/13 11:39:46;;;;;;;;;;;11.00;99.90;;;;;;4934391;29;20066;-69
2021/10/13 11:45:48;;;;;;;;;;;11.20;99.90;;;;;;4922434;29;20368;-69
2021/10/13 11:48:37;;;;;;;;;;;11.30;99.90;;;;;;4934760;28;19926;-69
2021/10/13 11:51:27;;;;;;;;;;;11.40;99.90;;;;;;4927126;29;20359;-69
2021/10/13 11:54:25;;;;;;;;;;;11.60;99.90;;;;;;4935088;28;20336;-69
2021/10/13 11:57:14;;;;;;;;;;;11.70;99.90;;;;;;4913952;29;19935;-69
2021/10/13 12:00:10;;;;;;;;;;;11.80;99.90;;;;;;4930026;29;19930;-70
2021/10/13 12:03:00;;;;;;;;;;;11.70;99.90;;;;;;4935165;28;19931;-69
2021/10/13 12:05:52;;;;;;;;;;;11.70;99.90;;;;;;4920000;29;20391;-69
2021/10/13 12:08:42;;;;;;;;;;;11.60;99.90;;;;;;4927718;29;20136;-69
2021/10/13 12:11:36;;;;;;;;;;;11.50;99.90;;;;;;4931886;29;19933;-69
2021/10/13 12:14:36;;;;;;;;;;;11.50;99.90;;;;;;4928901;29;20029;-69
2021/10/13 12:17:30;;;;;;;;;;;11.50;99.90;;;;;;4927609;28;19927;-69
2021/10/13 12:20:19;;;;;;;;;;;11.40;99.90;;;;;;4913828;29;19931;-70
2021/10/13 12:23:13;;;;;;;;;;;11.30;99.90;;;;;;4916380;29;19933;-70
2021/10/13 12:26:11;;;;;;;;;;;11.30;99.90;;;;;;4931315;29;19927;-69
2021/10/13 12:29:06;;;;;;;;;;;11.20;99.90;;;;;;4932873;29;19953;-69
2021/10/13 12:31:55;;;;;;;;;;;11.20;99.90;;;;;;4924425;29;20385;-69
2021/10/13 12:34:46;;;;;;;;;;;11.20;99.90;;;;;;4919046;29;19931;-69
2021/10/13 12:37:35;;;;;;;;;;;11.20;99.90;;;;;;4933933;28;20016;-70
2021/10/13 12:40:24;;;;;;;;;;;11.30;99.90;;;;;;4918400;29;19950;-69
2021/10/13 12:43:24;;;;;;;;;;;11.40;99.90;;;;;;4932224;29;19931;-70
2021/10/13 12:46:34;;;;;;;;;;;11.50;99.90;;;;;;4917085;29;20267;-70
2021/10/13 12:49:25;;;;;;;;;;;11.50;99.90;;;;;;4933068;28;20300;-69
2021/10/13 12:52:14;;;;;;;;;;;11.50;99.90;;;;;;4931346;29;20330;-69
2021/10/13 12:55:04;;;;;;;;;;;11.40;99.90;;;;;;4933581;29;19938;-70
2021/10/13 12:57:53;;;;;;;;;;;11.40;99.90;;;;;;4920636;29;19927;-70
2021/10/13 13:00:43;;;;;;;;;;;11.40;99.90;;;;;;4927631;28;19977;-70
2021/10/13 13:03:33;;;;;;;;;;;11.50;99.90;;;;;;4935737;28;20002;-70
2021/10/13 13:06:21;;;;;;;;;;;11.60;99.70;;;;;;4925268;29;19937;-69
2021/10/13 13:09:10;;;;;;;;;;;11.70;99.20;;;;;;4933719;28;19927;-70
2021/10/13 13:11:59;;;;;;;;;;;11.70;99.30;;;;;;4919202;29;19927;-70
2021/10/13 13:14:48;;;;;;;;;;;11.80;99.10;;;;;;4933416;28;19927;-70
2021/10/13 13:17:38;;;;;;;;;;;11.80;97.80;;;;;;4932881;29;19954;-70
2021/10/13 13:20:27;;;;;;;;;;;11.80;97.70;;;;;;4929292;29;19942;-69
2021/10/13 13:23:16;;;;;;;;;;;11.80;97.70;;;;;;4933200;29;19931;-70
2021/10/13 13:26:07;;;;;;;;;;;11.90;98.10;;;;;;4932407;29;20377;-69
2021/10/13 13:28:56;;;;;;;;;;;11.90;98.20;;;;;;4934233;28;19938;-69
2021/10/13 13:31:46;;;;;;;;;;;11.90;98.20;;;;;;4928770;29;19926;-69
2021/10/13 13:34:36;;;;;;;;;;;11.90;98.10;;;;;;4933258;29;19986;-70
2021/10/13 13:37:26;;;;;;;;;;;11.90;98.40;;;;;;4932530;29;20201;-70
2021/10/13 13:40:15;;;;;;;;;;;11.90;98.40;;;;;;4932046;28;19937;-68
2021/10/13 13:43:05;;;;;;;;;;;12.00;98.00;;;;;;4932747;29;19942;-68
2021/10/13 13:45:54;;;;;;;;;;;12.00;98.40;;;;;;4929176;29;19931;-69
2021/10/13 13:48:44;;;;;;;;;;;12.00;98.80;;;;;;4938098;29;20041;-72
2021/10/13 13:51:34;;;;;;;;;;;12.00;98.60;;;;;;4935583;29;20017;-74
2021/10/13 13:54:23;;;;;;;;;;;12.00;98.30;;;;;;4921576;29;19953;-71
2021/10/13 13:57:13;;;;;;;;;;;12.00;98.40;;;;;;4931198;29;20362;-70
2021/10/13 14:00:02;;;;;;;;;;;12.10;98.70;;;;;;4920176;29;19931;-73
2021/10/13 14:02:53;;;;;;;;;;;12.00;98.70;;;;;;4932633;29;19938;-71
2021/10/13 14:05:44;;;;;;;;;;;12.10;99.30;;;;;;4934685;29;19966;-71
2021/10/13 14:08:34;;;;;;;;;;;12.10;99.50;;;;;;4932993;29;20021;-71
2021/10/13 14:11:22;;;;;;;;;;;12.10;99.20;;;;;;4928542;29;19946;-71
2021/10/13 14:14:12;;;;;;;;;;;12.00;99.50;;;;;;4934275;28;19962;-71
2021/10/13 14:17:01;;;;;;;;;;;12.10;99.40;;;;;;4926717;29;20591;-72
2021/10/13 14:19:49;;;;;;;;;;;12.10;99.70;;;;;;4933483;29;19928;-72
2021/10/13 14:22:38;;;;;;;;;;;12.20;99.70;;;;;;4929679;29;19935;-71
2021/10/13 14:25:29;;;;;;;;;;;12.20;99.60;;;;;;4931110;29;19941;-71
2021/10/13 14:28:18;;;;;;;;;;;12.20;99.50;;;;;;4930960;29;19938;-71
2021/10/13 14:31:08;;;;;;;;;;;12.20;99.40;;;;;;4907659;29;19927;-72
2021/10/13 14:34:06;;;;;;;;;;;12.20;99.50;;;;;;4922170;29;19927;-71
2021/10/13 14:36:55;;;;;;;;;;;12.20;99.50;;;;;;4931861;29;20375;-71
2021/10/13 14:40:04;;;;;;;;;;;12.10;99.80;;;;;;4929879;29;19931;-69
2021/10/13 14:42:55;;;;;;;;;;;12.10;99.80;;;;;;4929630;28;19939;-70
2021/10/13 14:45:44;;;;;;;;;;;12.00;99.60;;;;;;4915728;28;19927;-67
2021/10/13 14:48:32;;;;;;;;;;;11.90;99.50;;;;;;4926717;29;20411;-70
2021/10/13 14:51:22;;;;;;;;;;;11.90;99.70;;;;;;4927964;29;19931;-69
2021/10/13 14:54:10;;;;;;;;;;;11.90;99.90;;;;;;4931360;28;19926;-69
2021/10/13 14:56:59;;;;;;;;;;;11.90;99.90;;;;;;4929664;29;19927;-68
2021/10/13 14:59:50;;;;;;;;;;;11.90;99.60;;;;;;4929164;29;19930;-69
2021/10/13 15:02:40;;;;;;;;;;;11.80;99.90;;;;;;4927050;28;20041;-69
2021/10/13 15:05:30;;;;;;;;;;;11.70;99.70;;;;;;4932533;29;19989;-69
2021/10/13 15:08:18;;;;;;;;;;;11.70;99.90;;;;;;4930077;29;19926;-71
2021/10/13 15:11:08;;;;;;;;;;;11.70;99.90;;;;;;4926450;29;19930;-68
2021/10/13 15:13:57;;;;;;;;;;;11.60;99.90;;;;;;4930328;28;19950;-71
2021/10/13 15:16:47;;;;;;;;;;;11.60;99.90;;;;;;4924342;29;19931;-69
2021/10/13 15:19:36;;;;;;;;;;;11.60;99.90;;;;;;4917815;29;19934;-70
2021/10/13 15:22:26;;;;;;;;;;;11.70;99.90;;;;;;4915768;28;19927;-71
2021/10/13 15:25:15;;;;;;;;;;;11.70;99.90;;;;;;4944572;23;20964;-76
2021/10/13 15:28:05;;;;;;;;;;;11.70;99.90;;;;;;4933167;29;19933;-76
2021/10/13 15:30:54;;;;;;;;;;;11.70;99.90;;;;;;4937258;28;19931;-76
2021/10/13 15:33:45;;;;;;;;;;;11.70;99.90;;;;;;4917306;28;20392;-76
2021/10/13 15:36:34;;;;;;;;;;;11.70;99.90;;;;;;4936226;29;19935;-77
2021/10/13 15:39:23;;;;;;;;;;;11.70;99.90;;;;;;4924818;29;20626;-77
2021/10/13 15:42:12;;;;;;;;;;;11.70;99.90;;;;;;4926943;29;19934;-77
2021/10/13 15:45:05;;;;;;;;;;;11.80;99.90;;;;;;4924658;29;19927;-77
2021/10/13 15:47:54;;;;;;;;;;;11.70;99.90;;;;;;4937937;28;20009;-76
2021/10/13 15:50:47;;;;;;;;;;;11.70;99.90;;;;;;4945670;28;20310;-77
2021/10/13 15:53:37;;;;;;;;;;;11.70;99.90;;;;;;4938471;28;19931;-79
2021/10/13 15:56:27;;;;;;;;;;;11.70;99.90;;;;;;4940158;28;19927;-77
2021/10/13 15:59:16;;;;;;;;;;;11.60;99.90;;;;;;4940384;28;20079;-78
2021/10/13 16:02:05;;;;;;;;;;;11.60;99.90;;;;;;4932743;28;19962;-78
2021/10/13 16:04:55;;;;;;;;;;;11.60;99.90;;;;;;4937782;29;20313;-78
2021/10/13 16:07:46;;;;;;;;;;;11.60;99.90;;;;;;4932156;28;20069;-76
2021/10/13 16:10:34;;;;;;;;;;;11.60;99.90;;;;;;4919594;28;20000;-76
2021/10/13 16:13:48;;;;;;;;;;;11.60;99.90;;;;;;4921486;29;20033;-78
2021/10/13 16:16:36;;;;;;;;;;;11.50;99.90;;;;;;4910810;28;20040;-75
2021/10/13 16:19:26;;;;;;;;;;;11.40;99.90;;;;;;4930890;29;20003;-75
2021/10/13 16:22:40;;;;;;;;;;;11.40;99.90;;;;;;4966079;23;19927;31
2021/10/13 16:25:34;;;;;;;;;;;11.30;99.90;;;;;;4897699;29;19935;-78
2021/10/13 16:28:26;;;;;;;;;;;11.30;99.90;;;;;;4883587;29;19975;-79
2021/10/13 16:31:15;;;;;;;;;;;11.30;99.90;;;;;;4879575;29;19934;-79
2021/10/13 16:34:05;;;;;;;;;;;11.30;99.90;;;;;;4895637;29;20015;-77
2021/10/13 16:36:55;;;;;;;;;;;11.30;99.90;;;;;;4899472;29;20398;-77
2021/10/13 16:39:44;;;;;;;;;;;11.30;99.90;;;;;;4894519;29;19950;-78
2021/10/13 16:42:35;;;;;;;;;;;11.30;99.90;;;;;;4895726;29;19928;-77
2021/10/13 16:45:25;;;;;;;;;;;11.30;99.90;;;;;;4891436;29;19935;-78
2021/10/13 16:48:14;;;;;;;;;;;11.30;99.90;;;;;;4897552;29;19928;-76
2021/10/13 16:51:02;;;;;;;;;;;11.30;99.90;;;;;;4896182;29;19979;-77
2021/10/13 16:53:54;;;;;;;;;;;11.20;99.90;;;;;;4883636;29;20352;-78
2021/10/13 16:56:44;;;;;;;;;;;11.20;99.90;;;;;;4901438;29;19934;-77
2021/10/13 16:59:34;;;;;;;;;;;11.20;99.90;;;;;;4892571;29;19928;-79
2021/10/13 17:02:22;;;;;;;;;;;11.20;99.90;;;;;;4889379;29;19928;-79
2021/10/13 17:05:12;;;;;;;;;;;11.20;99.90;;;;;;4899599;29;20010;-79